sensor_id;sensor_type;location;lat;lon;timestamp;P1;durP1;ratioP1;P2;durP2;ratioP2
16977;SDS011;8605;52.548;4.918;2024-02-23T00:01:04;20.97;;;3.67;;
16977;SDS011;8605;52.548;4.918;2024-02-23T00:03:32;24.23;;;4.03;;
16977;SDS011;8605;52.548;4.918;2024-02-23T00:06:02;25.70;;;3.77;;
16977;SDS011;8605;52.548;4.918;2024-02-23T00:08:30;21.63;;;3.47;;
16977;SDS011;8605;52.548;4.918;2024-02-23T00:10:58;26.07;;;4.47;;
16977;SDS011;8605;52.548;4.918;2024-02-23T00:13:26;31.73;;;3.80;;
16977;SDS011;8605;52.548;4.918;2024-02-23T00:15:54;26.53;;;3.63;;
16977;SDS011;8605;52.548;4.918;2024-02-23T00:18:23;23.17;;;3.90;;
16977;SDS011;8605;52.548;4.918;2024-02-23T00:20:51;30.43;;;4.10;;
16977;SDS011;8605;52.548;4.918;2024-02-23T00:23:19;30.10;;;4.33;;
16977;SDS011;8605;52.548;4.918;2024-02-23T00:25:46;22.53;;;3.57;;
16977;SDS011;8605;52.548;4.918;2024-02-23T00:28:14;26.93;;;3.87;;
16977;SDS011;8605;52.548;4.918;2024-02-23T00:30:42;22.67;;;3.37;;
16977;SDS011;8605;52.548;4.918;2024-02-23T00:33:10;26.07;;;3.50;;
16977;SDS011;8605;52.548;4.918;2024-02-23T00:35:39;25.93;;;3.90;;
16977;SDS011;8605;52.548;4.918;2024-02-23T00:38:07;25.30;;;4.00;;
16977;SDS011;8605;52.548;4.918;2024-02-23T00:40:35;22.47;;;3.63;;
16977;SDS011;8605;52.548;4.918;2024-02-23T00:43:03;25.97;;;3.87;;
16977;SDS011;8605;52.548;4.918;2024-02-23T00:45:31;18.10;;;3.20;;
16977;SDS011;8605;52.548;4.918;2024-02-23T00:47:59;22.77;;;2.70;;
16977;SDS011;8605;52.548;4.918;2024-02-23T00:50:27;19.07;;;2.83;;
16977;SDS011;8605;52.548;4.918;2024-02-23T00:52:56;18.40;;;3.13;;
16977;SDS011;8605;52.548;4.918;2024-02-23T00:55:24;19.73;;;3.37;;
16977;SDS011;8605;52.548;4.918;2024-02-23T00:57:53;22.97;;;2.87;;
16977;SDS011;8605;52.548;4.918;2024-02-23T01:00:23;20.50;;;3.27;;
16977;SDS011;8605;52.548;4.918;2024-02-23T01:02:51;25.33;;;3.40;;
16977;SDS011;8605;52.548;4.918;2024-02-23T01:05:19;18.13;;;2.80;;
16977;SDS011;8605;52.548;4.918;2024-02-23T01:07:47;23.40;;;3.77;;
16977;SDS011;8605;52.548;4.918;2024-02-23T01:10:16;19.77;;;3.70;;
16977;SDS011;8605;52.548;4.918;2024-02-23T01:12:44;12.93;;;2.77;;
16977;SDS011;8605;52.548;4.918;2024-02-23T01:15:12;18.67;;;3.20;;
16977;SDS011;8605;52.548;4.918;2024-02-23T01:17:39;19.30;;;3.23;;
16977;SDS011;8605;52.548;4.918;2024-02-23T01:20:08;19.10;;;3.33;;
16977;SDS011;8605;52.548;4.918;2024-02-23T01:22:36;18.23;;;2.83;;
16977;SDS011;8605;52.548;4.918;2024-02-23T01:25:05;20.90;;;3.30;;
16977;SDS011;8605;52.548;4.918;2024-02-23T01:27:35;18.13;;;2.60;;
16977;SDS011;8605;52.548;4.918;2024-02-23T01:30:04;18.67;;;2.83;;
16977;SDS011;8605;52.548;4.918;2024-02-23T01:32:32;19.10;;;2.93;;
16977;SDS011;8605;52.548;4.918;2024-02-23T01:35:05;23.70;;;2.80;;
16977;SDS011;8605;52.548;4.918;2024-02-23T01:37:34;20.47;;;3.00;;
16977;SDS011;8605;52.548;4.918;2024-02-23T01:40:02;25.77;;;3.20;;
16977;SDS011;8605;52.548;4.918;2024-02-23T01:42:30;31.10;;;2.70;;
16977;SDS011;8605;52.548;4.918;2024-02-23T01:45:02;16.00;;;3.20;;
16977;SDS011;8605;52.548;4.918;2024-02-23T01:47:30;18.17;;;3.40;;
16977;SDS011;8605;52.548;4.918;2024-02-23T01:49:59;17.87;;;2.90;;
16977;SDS011;8605;52.548;4.918;2024-02-23T01:52:27;17.83;;;2.87;;
16977;SDS011;8605;52.548;4.918;2024-02-23T01:54:55;15.60;;;2.57;;
16977;SDS011;8605;52.548;4.918;2024-02-23T01:57:24;15.20;;;2.80;;
16977;SDS011;8605;52.548;4.918;2024-02-23T02:00:13;27.93;;;3.00;;
16977;SDS011;8605;52.548;4.918;2024-02-23T02:02:43;16.23;;;2.80;;
16977;SDS011;8605;52.548;4.918;2024-02-23T02:05:13;21.97;;;2.87;;
16977;SDS011;8605;52.548;4.918;2024-02-23T02:07:40;19.83;;;2.70;;
16977;SDS011;8605;52.548;4.918;2024-02-23T02:10:09;23.20;;;3.23;;
16977;SDS011;8605;52.548;4.918;2024-02-23T02:12:37;22.03;;;3.03;;
16977;SDS011;8605;52.548;4.918;2024-02-23T02:15:05;22.33;;;3.00;;
16977;SDS011;8605;52.548;4.918;2024-02-23T02:17:35;22.47;;;3.53;;
16977;SDS011;8605;52.548;4.918;2024-02-23T02:20:04;22.90;;;2.90;;
16977;SDS011;8605;52.548;4.918;2024-02-23T02:22:35;17.83;;;2.60;;
16977;SDS011;8605;52.548;4.918;2024-02-23T02:25:03;21.37;;;2.97;;
16977;SDS011;8605;52.548;4.918;2024-02-23T02:27:31;18.73;;;2.80;;
16977;SDS011;8605;52.548;4.918;2024-02-23T02:29:59;24.03;;;2.90;;
16977;SDS011;8605;52.548;4.918;2024-02-23T02:32:27;16.20;;;2.93;;
16977;SDS011;8605;52.548;4.918;2024-02-23T02:35:01;28.37;;;2.90;;
16977;SDS011;8605;52.548;4.918;2024-02-23T02:37:29;16.57;;;2.63;;
16977;SDS011;8605;52.548;4.918;2024-02-23T02:39:56;21.40;;;2.40;;
16977;SDS011;8605;52.548;4.918;2024-02-23T02:42:24;18.23;;;2.40;;
16977;SDS011;8605;52.548;4.918;2024-02-23T02:44:54;20.47;;;2.60;;
16977;SDS011;8605;52.548;4.918;2024-02-23T02:47:23;19.67;;;2.97;;
16977;SDS011;8605;52.548;4.918;2024-02-23T02:49:50;19.30;;;2.70;;
16977;SDS011;8605;52.548;4.918;2024-02-23T02:52:20;27.07;;;3.17;;
16977;SDS011;8605;52.548;4.918;2024-02-23T02:54:49;15.10;;;3.20;;
16977;SDS011;8605;52.548;4.918;2024-02-23T02:57:17;15.50;;;2.53;;
16977;SDS011;8605;52.548;4.918;2024-02-23T02:59:45;14.30;;;3.07;;
16977;SDS011;8605;52.548;4.918;2024-02-23T03:02:13;13.17;;;2.40;;
16977;SDS011;8605;52.548;4.918;2024-02-23T03:04:46;23.67;;;2.73;;
16977;SDS011;8605;52.548;4.918;2024-02-23T03:07:14;26.60;;;3.37;;
16977;SDS011;8605;52.548;4.918;2024-02-23T03:09:43;14.27;;;2.40;;
16977;SDS011;8605;52.548;4.918;2024-02-23T03:12:11;13.70;;;2.50;;
16977;SDS011;8605;52.548;4.918;2024-02-23T03:14:39;14.60;;;2.50;;
16977;SDS011;8605;52.548;4.918;2024-02-23T03:17:07;24.17;;;3.23;;
16977;SDS011;8605;52.548;4.918;2024-02-23T03:19:36;15.60;;;2.30;;
16977;SDS011;8605;52.548;4.918;2024-02-23T03:22:04;24.77;;;2.73;;
16977;SDS011;8605;52.548;4.918;2024-02-23T03:24:32;19.23;;;2.40;;
16977;SDS011;8605;52.548;4.918;2024-02-23T03:27:01;19.53;;;2.77;;
16977;SDS011;8605;52.548;4.918;2024-02-23T03:29:29;20.60;;;2.60;;
16977;SDS011;8605;52.548;4.918;2024-02-23T03:31:57;24.43;;;2.70;;
16977;SDS011;8605;52.548;4.918;2024-02-23T03:34:25;21.40;;;3.60;;
16977;SDS011;8605;52.548;4.918;2024-02-23T03:36:53;23.50;;;2.60;;
16977;SDS011;8605;52.548;4.918;2024-02-23T03:39:21;24.33;;;2.73;;
16977;SDS011;8605;52.548;4.918;2024-02-23T03:41:49;21.33;;;2.80;;
16977;SDS011;8605;52.548;4.918;2024-02-23T03:44:18;18.30;;;3.00;;
16977;SDS011;8605;52.548;4.918;2024-02-23T03:46:46;20.00;;;2.60;;
16977;SDS011;8605;52.548;4.918;2024-02-23T03:49:14;24.87;;;3.57;;
16977;SDS011;8605;52.548;4.918;2024-02-23T03:51:41;26.30;;;2.83;;
16977;SDS011;8605;52.548;4.918;2024-02-23T03:54:09;23.97;;;2.67;;
16977;SDS011;8605;52.548;4.918;2024-02-23T03:56:37;17.83;;;2.47;;
16977;SDS011;8605;52.548;4.918;2024-02-23T03:59:06;24.37;;;3.13;;
16977;SDS011;8605;52.548;4.918;2024-02-23T04:01:37;17.77;;;3.03;;
16977;SDS011;8605;52.548;4.918;2024-02-23T04:04:06;16.47;;;2.87;;
16977;SDS011;8605;52.548;4.918;2024-02-23T04:06:34;18.87;;;2.87;;
16977;SDS011;8605;52.548;4.918;2024-02-23T04:09:02;23.63;;;3.20;;
16977;SDS011;8605;52.548;4.918;2024-02-23T04:11:31;23.10;;;2.40;;
16977;SDS011;8605;52.548;4.918;2024-02-23T04:14:00;23.40;;;2.63;;
16977;SDS011;8605;52.548;4.918;2024-02-23T04:16:28;14.50;;;2.53;;
16977;SDS011;8605;52.548;4.918;2024-02-23T04:18:57;18.90;;;2.50;;
16977;SDS011;8605;52.548;4.918;2024-02-23T04:21:26;21.23;;;2.63;;
16977;SDS011;8605;52.548;4.918;2024-02-23T04:23:53;21.53;;;3.00;;
16977;SDS011;8605;52.548;4.918;2024-02-23T04:26:21;28.17;;;3.10;;
16977;SDS011;8605;52.548;4.918;2024-02-23T04:28:49;24.73;;;3.30;;
16977;SDS011;8605;52.548;4.918;2024-02-23T04:31:17;24.37;;;2.90;;
16977;SDS011;8605;52.548;4.918;2024-02-23T04:33:44;18.27;;;2.60;;
16977;SDS011;8605;52.548;4.918;2024-02-23T04:36:14;19.27;;;2.17;;
16977;SDS011;8605;52.548;4.918;2024-02-23T04:38:42;21.03;;;2.20;;
16977;SDS011;8605;52.548;4.918;2024-02-23T04:41:10;17.73;;;2.43;;
16977;SDS011;8605;52.548;4.918;2024-02-23T04:43:37;21.20;;;3.10;;
16977;SDS011;8605;52.548;4.918;2024-02-23T04:46:05;19.87;;;2.93;;
16977;SDS011;8605;52.548;4.918;2024-02-23T04:48:36;18.23;;;2.77;;
16977;SDS011;8605;52.548;4.918;2024-02-23T04:51:04;16.93;;;2.23;;
16977;SDS011;8605;52.548;4.918;2024-02-23T04:53:37;19.20;;;2.90;;
16977;SDS011;8605;52.548;4.918;2024-02-23T04:56:04;17.87;;;2.70;;
16977;SDS011;8605;52.548;4.918;2024-02-23T04:58:36;19.27;;;3.00;;
16977;SDS011;8605;52.548;4.918;2024-02-23T05:01:04;19.47;;;3.80;;
16977;SDS011;8605;52.548;4.918;2024-02-23T05:03:31;15.87;;;3.27;;
16977;SDS011;8605;52.548;4.918;2024-02-23T05:06:02;20.07;;;3.23;;
16977;SDS011;8605;52.548;4.918;2024-02-23T05:08:30;16.17;;;2.90;;
16977;SDS011;8605;52.548;4.918;2024-02-23T05:11:02;25.20;;;2.87;;
16977;SDS011;8605;52.548;4.918;2024-02-23T05:13:30;21.60;;;3.07;;
16977;SDS011;8605;52.548;4.918;2024-02-23T05:16:01;15.40;;;3.13;;
16977;SDS011;8605;52.548;4.918;2024-02-23T05:18:29;13.97;;;2.60;;
16977;SDS011;8605;52.548;4.918;2024-02-23T05:20:57;18.30;;;3.50;;
16977;SDS011;8605;52.548;4.918;2024-02-23T05:23:25;17.00;;;3.67;;
16977;SDS011;8605;52.548;4.918;2024-02-23T05:25:53;24.37;;;3.97;;
16977;SDS011;8605;52.548;4.918;2024-02-23T05:28:22;27.80;;;4.20;;
16977;SDS011;8605;52.548;4.918;2024-02-23T05:30:49;22.97;;;3.90;;
16977;SDS011;8605;52.548;4.918;2024-02-23T05:33:17;19.13;;;5.07;;
16977;SDS011;8605;52.548;4.918;2024-02-23T05:35:47;24.20;;;4.83;;
16977;SDS011;8605;52.548;4.918;2024-02-23T05:38:15;15.63;;;4.97;;
16977;SDS011;8605;52.548;4.918;2024-02-23T05:40:43;23.30;;;4.97;;
16977;SDS011;8605;52.548;4.918;2024-02-23T05:43:11;21.93;;;4.87;;
16977;SDS011;8605;52.548;4.918;2024-02-23T05:45:40;14.47;;;3.70;;
16977;SDS011;8605;52.548;4.918;2024-02-23T05:48:09;20.37;;;3.77;;
16977;SDS011;8605;52.548;4.918;2024-02-23T05:50:37;12.00;;;3.97;;
16977;SDS011;8605;52.548;4.918;2024-02-23T05:53:05;20.33;;;3.27;;
16977;SDS011;8605;52.548;4.918;2024-02-23T05:55:34;14.47;;;3.17;;
16977;SDS011;8605;52.548;4.918;2024-02-23T05:58:01;17.70;;;3.07;;
16977;SDS011;8605;52.548;4.918;2024-02-23T06:00:29;13.03;;;2.90;;
16977;SDS011;8605;52.548;4.918;2024-02-23T06:02:59;10.83;;;2.40;;
16977;SDS011;8605;52.548;4.918;2024-02-23T06:05:27;16.57;;;2.70;;
16977;SDS011;8605;52.548;4.918;2024-02-23T06:07:55;13.83;;;2.50;;
16977;SDS011;8605;52.548;4.918;2024-02-23T06:10:24;6.50;;;1.90;;
16977;SDS011;8605;52.548;4.918;2024-02-23T06:12:52;9.67;;;1.73;;
16977;SDS011;8605;52.548;4.918;2024-02-23T06:15:22;7.93;;;1.90;;
16977;SDS011;8605;52.548;4.918;2024-02-23T06:17:50;10.33;;;1.63;;
16977;SDS011;8605;52.548;4.918;2024-02-23T06:20:19;13.47;;;2.20;;
16977;SDS011;8605;52.548;4.918;2024-02-23T06:22:47;10.53;;;1.63;;
16977;SDS011;8605;52.548;4.918;2024-02-23T06:25:15;9.40;;;1.73;;
16977;SDS011;8605;52.548;4.918;2024-02-23T06:27:42;6.60;;;1.20;;
16977;SDS011;8605;52.548;4.918;2024-02-23T06:30:10;8.43;;;1.63;;
16977;SDS011;8605;52.548;4.918;2024-02-23T06:32:38;10.40;;;1.60;;
16977;SDS011;8605;52.548;4.918;2024-02-23T06:35:07;9.77;;;1.97;;
16977;SDS011;8605;52.548;4.918;2024-02-23T06:37:39;14.67;;;2.23;;
16977;SDS011;8605;52.548;4.918;2024-02-23T06:40:07;10.57;;;2.07;;
16977;SDS011;8605;52.548;4.918;2024-02-23T06:42:35;10.00;;;2.70;;
16977;SDS011;8605;52.548;4.918;2024-02-23T06:45:03;11.57;;;2.80;;
16977;SDS011;8605;52.548;4.918;2024-02-23T06:47:32;12.13;;;3.37;;
16977;SDS011;8605;52.548;4.918;2024-02-23T06:50:00;11.60;;;3.63;;
16977;SDS011;8605;52.548;4.918;2024-02-23T06:52:28;12.87;;;3.60;;
16977;SDS011;8605;52.548;4.918;2024-02-23T06:54:57;8.27;;;3.77;;
16977;SDS011;8605;52.548;4.918;2024-02-23T06:57:25;13.20;;;4.60;;
16977;SDS011;8605;52.548;4.918;2024-02-23T06:59:53;10.43;;;4.33;;
16977;SDS011;8605;52.548;4.918;2024-02-23T07:02:21;10.97;;;4.70;;
16977;SDS011;8605;52.548;4.918;2024-02-23T07:04:49;13.27;;;4.83;;
16977;SDS011;8605;52.548;4.918;2024-02-23T07:07:16;12.63;;;4.50;;
16977;SDS011;8605;52.548;4.918;2024-02-23T07:09:44;16.47;;;4.60;;
16977;SDS011;8605;52.548;4.918;2024-02-23T07:12:13;14.23;;;5.20;;
16977;SDS011;8605;52.548;4.918;2024-02-23T07:14:41;17.23;;;5.90;;
16977;SDS011;8605;52.548;4.918;2024-02-23T07:17:09;15.43;;;6.70;;
16977;SDS011;8605;52.548;4.918;2024-02-23T07:19:37;18.53;;;7.33;;
16977;SDS011;8605;52.548;4.918;2024-02-23T07:22:05;18.73;;;8.83;;
16977;SDS011;8605;52.548;4.918;2024-02-23T07:24:32;17.60;;;8.77;;
16977;SDS011;8605;52.548;4.918;2024-02-23T07:27:00;21.20;;;8.83;;
16977;SDS011;8605;52.548;4.918;2024-02-23T07:29:29;16.20;;;7.53;;
16977;SDS011;8605;52.548;4.918;2024-02-23T07:31:57;20.23;;;7.40;;
16977;SDS011;8605;52.548;4.918;2024-02-23T07:34:25;13.53;;;6.37;;
16977;SDS011;8605;52.548;4.918;2024-02-23T07:36:53;14.10;;;6.57;;
16977;SDS011;8605;52.548;4.918;2024-02-23T07:39:21;17.40;;;7.73;;
16977;SDS011;8605;52.548;4.918;2024-02-23T07:41:49;20.53;;;7.87;;
16977;SDS011;8605;52.548;4.918;2024-02-23T07:44:16;22.33;;;8.13;;
16977;SDS011;8605;52.548;4.918;2024-02-23T07:46:46;25.83;;;9.13;;
16977;SDS011;8605;52.548;4.918;2024-02-23T07:49:13;20.33;;;9.27;;
16977;SDS011;8605;52.548;4.918;2024-02-23T07:51:41;19.13;;;9.80;;
16977;SDS011;8605;52.548;4.918;2024-02-23T07:54:09;21.77;;;8.57;;
16977;SDS011;8605;52.548;4.918;2024-02-23T07:56:37;18.63;;;8.57;;
16977;SDS011;8605;52.548;4.918;2024-02-23T07:59:04;20.60;;;8.80;;
16977;SDS011;8605;52.548;4.918;2024-02-23T08:01:32;21.67;;;8.77;;
16977;SDS011;8605;52.548;4.918;2024-02-23T08:04:03;19.40;;;8.10;;
16977;SDS011;8605;52.548;4.918;2024-02-23T08:06:30;18.43;;;7.57;;
16977;SDS011;8605;52.548;4.918;2024-02-23T08:08:59;18.37;;;8.10;;
16977;SDS011;8605;52.548;4.918;2024-02-23T08:11:26;23.37;;;8.50;;
16977;SDS011;8605;52.548;4.918;2024-02-23T08:13:54;18.50;;;8.00;;
16977;SDS011;8605;52.548;4.918;2024-02-23T08:16:22;22.57;;;8.40;;
16977;SDS011;8605;52.548;4.918;2024-02-23T08:18:50;20.63;;;8.00;;
16977;SDS011;8605;52.548;4.918;2024-02-23T08:21:20;18.80;;;7.80;;
16977;SDS011;8605;52.548;4.918;2024-02-23T08:23:47;17.97;;;6.70;;
16977;SDS011;8605;52.548;4.918;2024-02-23T08:26:15;20.00;;;7.23;;
16977;SDS011;8605;52.548;4.918;2024-02-23T08:28:43;24.30;;;8.27;;
16977;SDS011;8605;52.548;4.918;2024-02-23T08:31:11;24.13;;;8.47;;
16977;SDS011;8605;52.548;4.918;2024-02-23T08:33:39;20.37;;;8.37;;
16977;SDS011;8605;52.548;4.918;2024-02-23T08:36:07;21.73;;;7.97;;
16977;SDS011;8605;52.548;4.918;2024-02-23T08:38:39;15.90;;;5.20;;
16977;SDS011;8605;52.548;4.918;2024-02-23T08:41:07;10.80;;;4.00;;
16977;SDS011;8605;52.548;4.918;2024-02-23T08:43:35;11.10;;;4.13;;
16977;SDS011;8605;52.548;4.918;2024-02-23T08:46:03;11.90;;;3.67;;
16977;SDS011;8605;52.548;4.918;2024-02-23T08:48:35;10.90;;;4.20;;
16977;SDS011;8605;52.548;4.918;2024-02-23T08:51:03;13.93;;;4.93;;
16977;SDS011;8605;52.548;4.918;2024-02-23T08:53:31;13.40;;;5.30;;
16977;SDS011;8605;52.548;4.918;2024-02-23T08:56:00;14.07;;;5.20;;
16977;SDS011;8605;52.548;4.918;2024-02-23T08:58:28;13.57;;;6.07;;
16977;SDS011;8605;52.548;4.918;2024-02-23T09:00:56;14.97;;;8.20;;
16977;SDS011;8605;52.548;4.918;2024-02-23T09:03:24;17.97;;;8.93;;
16977;SDS011;8605;52.548;4.918;2024-02-23T09:05:51;20.90;;;9.17;;
16977;SDS011;8605;52.548;4.918;2024-02-23T09:08:19;17.80;;;9.17;;
16977;SDS011;8605;52.548;4.918;2024-02-23T09:10:47;17.30;;;9.07;;
16977;SDS011;8605;52.548;4.918;2024-02-23T09:13:16;14.80;;;7.83;;
16977;SDS011;8605;52.548;4.918;2024-02-23T09:15:44;20.90;;;6.43;;
16977;SDS011;8605;52.548;4.918;2024-02-23T09:18:12;14.67;;;6.00;;
16977;SDS011;8605;52.548;4.918;2024-02-23T09:20:40;17.67;;;5.47;;
16977;SDS011;8605;52.548;4.918;2024-02-23T09:23:08;14.47;;;6.40;;
16977;SDS011;8605;52.548;4.918;2024-02-23T09:25:38;12.80;;;5.30;;
16977;SDS011;8605;52.548;4.918;2024-02-23T09:28:09;11.63;;;4.73;;
16977;SDS011;8605;52.548;4.918;2024-02-23T09:30:39;18.17;;;5.40;;
16977;SDS011;8605;52.548;4.918;2024-02-23T09:33:08;15.53;;;4.67;;
16977;SDS011;8605;52.548;4.918;2024-02-23T09:35:35;8.90;;;4.17;;
16977;SDS011;8605;52.548;4.918;2024-02-23T09:38:03;13.23;;;4.47;;
16977;SDS011;8605;52.548;4.918;2024-02-23T09:40:31;8.37;;;4.37;;
16977;SDS011;8605;52.548;4.918;2024-02-23T09:43:02;12.00;;;4.57;;
16977;SDS011;8605;52.548;4.918;2024-02-23T09:45:35;12.57;;;4.33;;
16977;SDS011;8605;52.548;4.918;2024-02-23T09:48:05;13.80;;;4.47;;
16977;SDS011;8605;52.548;4.918;2024-02-23T09:50:35;13.23;;;5.50;;
16977;SDS011;8605;52.548;4.918;2024-02-23T09:53:04;11.67;;;5.23;;
16977;SDS011;8605;52.548;4.918;2024-02-23T09:55:35;15.37;;;4.70;;
16977;SDS011;8605;52.548;4.918;2024-02-23T09:58:03;12.70;;;5.27;;
16977;SDS011;8605;52.548;4.918;2024-02-23T10:00:32;15.97;;;5.53;;
16977;SDS011;8605;52.548;4.918;2024-02-23T10:03:02;14.30;;;5.30;;
16977;SDS011;8605;52.548;4.918;2024-02-23T10:05:33;10.87;;;4.93;;
16977;SDS011;8605;52.548;4.918;2024-02-23T10:08:07;13.03;;;5.13;;
16977;SDS011;8605;52.548;4.918;2024-02-23T10:10:35;16.43;;;6.03;;
16977;SDS011;8605;52.548;4.918;2024-02-23T10:13:05;18.80;;;5.20;;
16977;SDS011;8605;52.548;4.918;2024-02-23T10:15:34;11.83;;;4.80;;
16977;SDS011;8605;52.548;4.918;2024-02-23T10:18:02;14.77;;;4.50;;
16977;SDS011;8605;52.548;4.918;2024-02-23T10:20:31;10.80;;;5.13;;
16977;SDS011;8605;52.548;4.918;2024-02-23T10:22:59;18.43;;;5.17;;
16977;SDS011;8605;52.548;4.918;2024-02-23T10:25:27;11.80;;;4.80;;
16977;SDS011;8605;52.548;4.918;2024-02-23T10:27:55;17.20;;;5.10;;
16977;SDS011;8605;52.548;4.918;2024-02-23T10:30:23;16.33;;;5.07;;
16977;SDS011;8605;52.548;4.918;2024-02-23T10:32:51;14.63;;;4.10;;
16977;SDS011;8605;52.548;4.918;2024-02-23T10:35:23;14.87;;;4.00;;
16977;SDS011;8605;52.548;4.918;2024-02-23T10:37:54;15.73;;;4.50;;
16977;SDS011;8605;52.548;4.918;2024-02-23T10:40:22;14.40;;;3.60;;
16977;SDS011;8605;52.548;4.918;2024-02-23T10:42:50;17.67;;;3.77;;
16977;SDS011;8605;52.548;4.918;2024-02-23T10:45:21;13.17;;;3.60;;
16977;SDS011;8605;52.548;4.918;2024-02-23T10:47:49;12.63;;;3.63;;
16977;SDS011;8605;52.548;4.918;2024-02-23T10:50:18;13.10;;;3.33;;
16977;SDS011;8605;52.548;4.918;2024-02-23T10:52:47;11.43;;;2.80;;
16977;SDS011;8605;52.548;4.918;2024-02-23T10:55:17;14.73;;;3.53;;
16977;SDS011;8605;52.548;4.918;2024-02-23T10:57:45;11.13;;;2.87;;
16977;SDS011;8605;52.548;4.918;2024-02-23T11:00:15;12.27;;;2.60;;
16977;SDS011;8605;52.548;4.918;2024-02-23T11:02:46;12.80;;;2.53;;
16977;SDS011;8605;52.548;4.918;2024-02-23T11:05:18;10.57;;;2.90;;
16977;SDS011;8605;52.548;4.918;2024-02-23T11:07:46;10.13;;;2.50;;
16977;SDS011;8605;52.548;4.918;2024-02-23T11:10:15;9.30;;;2.47;;
16977;SDS011;8605;52.548;4.918;2024-02-23T11:12:45;7.87;;;2.47;;
16977;SDS011;8605;52.548;4.918;2024-02-23T11:15:25;10.83;;;2.70;;
16977;SDS011;8605;52.548;4.918;2024-02-23T11:17:56;8.70;;;2.47;;
16977;SDS011;8605;52.548;4.918;2024-02-23T11:20:24;9.83;;;2.30;;
16977;SDS011;8605;52.548;4.918;2024-02-23T11:23:12;12.90;;;2.60;;
16977;SDS011;8605;52.548;4.918;2024-02-23T11:25:41;11.20;;;3.07;;
16977;SDS011;8605;52.548;4.918;2024-02-23T11:28:10;8.90;;;2.23;;
16977;SDS011;8605;52.548;4.918;2024-02-23T11:30:49;10.13;;;2.37;;
16977;SDS011;8605;52.548;4.918;2024-02-23T11:33:25;11.73;;;2.40;;
16977;SDS011;8605;52.548;4.918;2024-02-23T11:36:04;8.03;;;2.47;;
16977;SDS011;8605;52.548;4.918;2024-02-23T11:38:32;12.43;;;2.70;;
16977;SDS011;8605;52.548;4.918;2024-02-23T11:41:00;9.93;;;2.83;;
16977;SDS011;8605;52.548;4.918;2024-02-23T11:43:31;12.13;;;3.10;;
16977;SDS011;8605;52.548;4.918;2024-02-23T11:46:01;15.53;;;3.13;;
16977;SDS011;8605;52.548;4.918;2024-02-23T11:48:29;14.83;;;2.43;;
16977;SDS011;8605;52.548;4.918;2024-02-23T11:50:57;11.37;;;2.43;;
16977;SDS011;8605;52.548;4.918;2024-02-23T11:53:25;8.17;;;2.27;;
16977;SDS011;8605;52.548;4.918;2024-02-23T11:55:53;9.63;;;2.40;;
16977;SDS011;8605;52.548;4.918;2024-02-23T11:58:21;12.83;;;2.60;;
16977;SDS011;8605;52.548;4.918;2024-02-23T12:00:51;8.70;;;2.53;;
16977;SDS011;8605;52.548;4.918;2024-02-23T12:03:19;11.37;;;2.43;;
16977;SDS011;8605;52.548;4.918;2024-02-23T12:05:49;11.33;;;2.57;;
16977;SDS011;8605;52.548;4.918;2024-02-23T12:08:17;8.73;;;1.97;;
16977;SDS011;8605;52.548;4.918;2024-02-23T12:10:45;13.63;;;2.53;;
16977;SDS011;8605;52.548;4.918;2024-02-23T12:13:14;10.53;;;2.00;;
16977;SDS011;8605;52.548;4.918;2024-02-23T12:15:41;14.50;;;2.40;;
16977;SDS011;8605;52.548;4.918;2024-02-23T12:18:11;12.10;;;2.97;;
16977;SDS011;8605;52.548;4.918;2024-02-23T12:20:39;9.63;;;2.30;;
16977;SDS011;8605;52.548;4.918;2024-02-23T12:23:07;16.17;;;3.00;;
16977;SDS011;8605;52.548;4.918;2024-02-23T12:25:36;8.60;;;2.20;;
16977;SDS011;8605;52.548;4.918;2024-02-23T12:28:08;10.30;;;2.20;;
16977;SDS011;8605;52.548;4.918;2024-02-23T12:30:36;12.13;;;2.50;;
16977;SDS011;8605;52.548;4.918;2024-02-23T12:33:04;14.03;;;2.47;;
16977;SDS011;8605;52.548;4.918;2024-02-23T12:35:35;15.20;;;2.53;;
16977;SDS011;8605;52.548;4.918;2024-02-23T12:38:03;7.83;;;2.30;;
16977;SDS011;8605;52.548;4.918;2024-02-23T12:40:33;12.67;;;2.50;;
16977;SDS011;8605;52.548;4.918;2024-02-23T12:43:00;17.10;;;2.60;;
16977;SDS011;8605;52.548;4.918;2024-02-23T12:45:28;13.63;;;2.70;;
16977;SDS011;8605;52.548;4.918;2024-02-23T12:47:56;11.47;;;2.20;;
16977;SDS011;8605;52.548;4.918;2024-02-23T12:50:24;12.93;;;2.60;;
16977;SDS011;8605;52.548;4.918;2024-02-23T12:52:53;13.50;;;2.47;;
16977;SDS011;8605;52.548;4.918;2024-02-23T12:55:21;15.10;;;2.60;;
16977;SDS011;8605;52.548;4.918;2024-02-23T12:57:49;12.10;;;2.33;;
16977;SDS011;8605;52.548;4.918;2024-02-23T13:00:17;17.60;;;2.63;;
16977;SDS011;8605;52.548;4.918;2024-02-23T13:02:45;13.23;;;2.73;;
16977;SDS011;8605;52.548;4.918;2024-02-23T13:05:35;13.87;;;2.80;;
16977;SDS011;8605;52.548;4.918;2024-02-23T13:08:04;16.17;;;2.90;;
16977;SDS011;8605;52.548;4.918;2024-02-23T13:10:36;9.07;;;2.23;;
16977;SDS011;8605;52.548;4.918;2024-02-23T13:13:04;14.47;;;2.60;;
16977;SDS011;8605;52.548;4.918;2024-02-23T13:15:31;16.20;;;2.93;;
16977;SDS011;8605;52.548;4.918;2024-02-23T13:18:00;13.80;;;2.47;;
16977;SDS011;8605;52.548;4.918;2024-02-23T13:20:29;13.90;;;2.90;;
16977;SDS011;8605;52.548;4.918;2024-02-23T13:22:57;15.53;;;2.70;;
16977;SDS011;8605;52.548;4.918;2024-02-23T13:25:26;16.30;;;2.90;;
16977;SDS011;8605;52.548;4.918;2024-02-23T13:27:54;15.27;;;2.67;;
16977;SDS011;8605;52.548;4.918;2024-02-23T13:30:22;12.30;;;2.20;;
16977;SDS011;8605;52.548;4.918;2024-02-23T13:32:50;12.50;;;2.50;;
16977;SDS011;8605;52.548;4.918;2024-02-23T13:35:18;24.83;;;3.20;;
16977;SDS011;8605;52.548;4.918;2024-02-23T13:37:45;13.70;;;2.47;;
16977;SDS011;8605;52.548;4.918;2024-02-23T13:40:13;10.63;;;2.47;;
16977;SDS011;8605;52.548;4.918;2024-02-23T13:42:43;18.40;;;2.40;;
16977;SDS011;8605;52.548;4.918;2024-02-23T13:45:12;14.32;;;3.03;;
16977;SDS011;8605;52.548;4.918;2024-02-23T13:47:41;10.47;;;2.30;;
16977;SDS011;8605;52.548;4.918;2024-02-23T13:50:11;9.53;;;1.67;;
16977;SDS011;8605;52.548;4.918;2024-02-23T13:52:40;12.43;;;1.90;;
16977;SDS011;8605;52.548;4.918;2024-02-23T13:55:08;13.87;;;2.37;;
16977;SDS011;8605;52.548;4.918;2024-02-23T13:57:36;10.93;;;2.17;;
16977;SDS011;8605;52.548;4.918;2024-02-23T14:00:06;9.43;;;1.97;;
16977;SDS011;8605;52.548;4.918;2024-02-23T14:02:39;13.07;;;2.20;;
16977;SDS011;8605;52.548;4.918;2024-02-23T14:05:07;12.60;;;2.23;;
16977;SDS011;8605;52.548;4.918;2024-02-23T14:07:35;10.27;;;2.33;;
16977;SDS011;8605;52.548;4.918;2024-02-23T14:10:04;15.57;;;2.10;;
16977;SDS011;8605;52.548;4.918;2024-02-23T14:12:32;18.03;;;1.97;;
16977;SDS011;8605;52.548;4.918;2024-02-23T14:15:03;9.40;;;1.73;;
16977;SDS011;8605;52.548;4.918;2024-02-23T14:17:33;13.57;;;2.20;;
16977;SDS011;8605;52.548;4.918;2024-02-23T14:20:02;18.43;;;2.10;;
16977;SDS011;8605;52.548;4.918;2024-02-23T14:22:30;26.33;;;6.03;;
16977;SDS011;8605;52.548;4.918;2024-02-23T14:24:58;16.60;;;2.47;;
16977;SDS011;8605;52.548;4.918;2024-02-23T14:27:26;16.97;;;2.63;;
16977;SDS011;8605;52.548;4.918;2024-02-23T14:29:57;15.20;;;2.20;;
16977;SDS011;8605;52.548;4.918;2024-02-23T14:32:27;15.18;;;2.50;;
16977;SDS011;8605;52.548;4.918;2024-02-23T14:34:55;13.57;;;2.00;;
16977;SDS011;8605;52.548;4.918;2024-02-23T14:37:24;15.73;;;2.10;;
16977;SDS011;8605;52.548;4.918;2024-02-23T14:39:52;12.73;;;1.60;;
16977;SDS011;8605;52.548;4.918;2024-02-23T14:42:19;11.73;;;2.40;;
16977;SDS011;8605;52.548;4.918;2024-02-23T14:44:47;15.43;;;2.43;;
16977;SDS011;8605;52.548;4.918;2024-02-23T14:47:16;15.73;;;2.23;;
16977;SDS011;8605;52.548;4.918;2024-02-23T14:49:53;18.73;;;4.00;;
16977;SDS011;8605;52.548;4.918;2024-02-23T14:52:21;14.87;;;2.77;;
16977;SDS011;8605;52.548;4.918;2024-02-23T14:54:48;20.20;;;6.00;;
16977;SDS011;8605;52.548;4.918;2024-02-23T14:57:16;29.90;;;8.13;;